createdAt,value
2022-12-31T00:01:16.218Z,7.04
2022-12-31T00:03:44.982Z,7.17
2022-12-31T00:06:25.590Z,6.90
2022-12-31T00:08:55.114Z,7.35
2022-12-31T00:11:23.640Z,7.36
2022-12-31T00:13:51.639Z,6.30
2022-12-31T00:16:22.380Z,6.77
2022-12-31T00:18:52.848Z,6.89
2022-12-31T00:21:21.687Z,6.83
2022-12-31T00:23:49.644Z,7.01
2022-12-31T00:26:24.965Z,7.20
2022-12-31T00:28:53.787Z,7.00
2022-12-31T00:31:23.971Z,6.61
2022-12-31T00:33:52.132Z,6.82
2022-12-31T00:36:26.178Z,6.65
2022-12-31T00:38:55.703Z,6.82
2022-12-31T00:41:24.372Z,7.19
2022-12-31T00:43:51.879Z,7.21
2022-12-31T00:46:19.682Z,7.52
2022-12-31T00:48:47.962Z,7.12
2022-12-31T00:51:17.710Z,7.02
2022-12-31T00:53:45.806Z,7.37
2022-12-31T00:56:19.235Z,7.36
2022-12-31T00:58:46.840Z,7.62
2022-12-31T01:01:19.054Z,7.37
2022-12-31T01:03:47.835Z,7.54
2022-12-31T01:06:16.601Z,7.49
2022-12-31T01:08:44.531Z,7.56
2022-12-31T01:11:19.064Z,7.47
2022-12-31T01:13:49.786Z,7.33
2022-12-31T01:16:18.656Z,7.44
2022-12-31T01:18:46.202Z,6.86
2022-12-31T01:21:15.968Z,6.87
2022-12-31T01:23:43.451Z,7.34
2022-12-31T01:26:13.036Z,7.30
2022-12-31T01:28:41.127Z,7.30
2022-12-31T01:31:11.230Z,7.22
2022-12-31T01:33:39.244Z,7.00
2022-12-31T01:36:13.484Z,7.21
2022-12-31T01:38:41.803Z,7.42
2022-12-31T01:41:14.806Z,7.37
2022-12-31T01:43:56.584Z,7.55
2022-12-31T01:46:36.803Z,7.73
2022-12-31T01:49:24.364Z,7.42
2022-12-31T01:51:57.963Z,7.29
2022-12-31T01:54:26.230Z,7.48
2022-12-31T01:56:54.481Z,7.21
2022-12-31T01:59:23.628Z,7.44
2022-12-31T02:01:54.051Z,7.23
2022-12-31T02:04:24.342Z,7.05
2022-12-31T02:07:02.189Z,7.21
2022-12-31T02:09:30.784Z,7.33
2022-12-31T02:11:58.260Z,7.17
2022-12-31T02:14:28.562Z,7.24
2022-12-31T02:17:02.295Z,7.38
2022-12-31T02:19:44.222Z,7.44
2022-12-31T02:22:53.942Z,7.10
2022-12-31T02:25:40.105Z,7.09
2022-12-31T02:28:54.502Z,7.23
2022-12-31T02:31:27.108Z,7.42
2022-12-31T02:33:58.207Z,7.24
2022-12-31T02:36:28.567Z,7.34
2022-12-31T02:38:57.803Z,7.55
2022-12-31T02:41:44.124Z,7.72
2022-12-31T02:44:21.052Z,7.60
2022-12-31T02:47:09.105Z,7.34
2022-12-31T02:49:47.420Z,7.06
2022-12-31T02:52:22.567Z,7.36
2022-12-31T02:54:59.387Z,7.16
2022-12-31T02:57:30.896Z,7.14
2022-12-31T03:00:20.823Z,7.25
2022-12-31T03:02:49.116Z,7.41
2022-12-31T03:05:20.115Z,7.18
2022-12-31T03:07:48.097Z,7.51
2022-12-31T03:10:15.662Z,7.04
2022-12-31T03:12:47.599Z,7.15
2022-12-31T03:15:21.982Z,7.66
2022-12-31T03:18:02.463Z,7.16
2022-12-31T03:20:54.967Z,7.13
2022-12-31T03:23:28.869Z,6.92
2022-12-31T03:25:58.006Z,7.29
2022-12-31T03:28:28.744Z,7.32
2022-12-31T03:30:58.956Z,7.17
2022-12-31T03:33:31.203Z,7.54
2022-12-31T03:35:58.745Z,7.41
2022-12-31T03:38:27.359Z,7.50
2022-12-31T03:40:54.788Z,7.35
2022-12-31T03:43:22.559Z,7.62
2022-12-31T03:45:51.751Z,7.36
2022-12-31T03:48:21.036Z,7.21
2022-12-31T03:50:48.650Z,7.38
2022-12-31T03:53:16.530Z,6.96
2022-12-31T03:55:44.566Z,7.03
2022-12-31T03:58:12.566Z,7.19
2022-12-31T04:00:40.465Z,7.35
2022-12-31T04:03:08.240Z,7.66
2022-12-31T04:05:35.667Z,7.45
2022-12-31T04:08:03.092Z,7.55
2022-12-31T04:10:48.787Z,7.76
2022-12-31T04:13:16.659Z,7.56
2022-12-31T04:15:44.506Z,7.57
2022-12-31T04:18:12.637Z,7.61
2022-12-31T04:20:40.761Z,7.92
2022-12-31T04:23:08.606Z,7.76
2022-12-31T04:25:36.080Z,7.83
2022-12-31T04:28:03.622Z,8.06
2022-12-31T04:30:31.413Z,7.87
2022-12-31T04:32:58.863Z,7.88
2022-12-31T04:35:26.294Z,7.84
2022-12-31T04:37:54.086Z,7.84
2022-12-31T04:40:23.325Z,8.02
2022-12-31T04:42:50.700Z,8.29
2022-12-31T04:45:18.828Z,8.03
2022-12-31T04:47:46.270Z,7.74
2022-12-31T04:50:13.814Z,7.86
2022-12-31T04:52:43.007Z,8.00
2022-12-31T04:55:11.252Z,7.89
2022-12-31T04:57:39.012Z,7.88
2022-12-31T05:00:08.030Z,8.08
2022-12-31T05:02:35.745Z,8.11
2022-12-31T05:05:03.573Z,8.16
2022-12-31T05:07:31.636Z,8.17
2022-12-31T05:09:59.200Z,8.16
2022-12-31T05:12:26.926Z,8.12
2022-12-31T05:14:54.754Z,8.05
2022-12-31T05:17:22.213Z,8.24
2022-12-31T05:19:49.792Z,8.50
2022-12-31T05:22:29.544Z,8.14
2022-12-31T05:25:01.195Z,8.27
2022-12-31T05:27:31.347Z,8.27
2022-12-31T05:29:59.922Z,7.63
2022-12-31T05:32:27.740Z,7.77
2022-12-31T05:34:55.993Z,7.98
2022-12-31T05:37:23.694Z,7.57
2022-12-31T05:39:51.449Z,7.78
2022-12-31T05:42:19.161Z,7.86
2022-12-31T05:44:47.048Z,8.08
2022-12-31T05:47:15.258Z,7.82
2022-12-31T05:49:47.111Z,8.21
2022-12-31T05:52:14.489Z,8.20
2022-12-31T05:54:42.297Z,8.17
2022-12-31T05:57:10.310Z,8.06
2022-12-31T05:59:37.945Z,8.08
2022-12-31T06:02:05.653Z,8.16
2022-12-31T06:04:34.277Z,8.06
2022-12-31T06:07:01.888Z,8.24
2022-12-31T06:09:29.475Z,8.16
2022-12-31T06:11:57.325Z,8.21
2022-12-31T06:14:25.267Z,8.29
2022-12-31T06:16:53.162Z,8.29
2022-12-31T06:19:21.090Z,8.26
2022-12-31T06:21:48.691Z,8.06
2022-12-31T06:24:16.301Z,8.13
2022-12-31T06:26:44.388Z,8.17
2022-12-31T06:29:12.039Z,7.96
2022-12-31T06:31:39.446Z,8.13
2022-12-31T06:34:07.842Z,8.16
2022-12-31T06:36:35.410Z,8.36
2022-12-31T06:39:03.104Z,8.31
2022-12-31T06:41:31.439Z,8.42
2022-12-31T06:43:59.431Z,8.53
2022-12-31T06:46:27.002Z,8.55
2022-12-31T06:48:55.125Z,8.60
2022-12-31T06:51:23.817Z,8.87
2022-12-31T06:53:51.952Z,8.78
2022-12-31T06:56:26.522Z,8.57
2022-12-31T06:58:58.357Z,8.95
2022-12-31T07:01:58.149Z,8.67
2022-12-31T07:04:40.698Z,8.83
2022-12-31T07:07:10.517Z,9.11
2022-12-31T07:09:43.861Z,8.98
2022-12-31T07:12:35.728Z,9.02
2022-12-31T07:15:15.012Z,8.62
2022-12-31T07:17:49.141Z,8.35
2022-12-31T07:20:18.740Z,8.29
2022-12-31T07:22:46.916Z,8.25
2022-12-31T07:25:18.918Z,8.14
2022-12-31T07:27:59.897Z,8.64
2022-12-31T07:30:40.187Z,8.66
2022-12-31T07:33:21.868Z,8.87
2022-12-31T07:36:04.960Z,8.28
2022-12-31T07:39:02.087Z,8.13
2022-12-31T07:41:44.918Z,8.25
2022-12-31T07:44:25.207Z,8.28
2022-12-31T07:46:58.394Z,7.88
2022-12-31T07:49:28.748Z,8.05
2022-12-31T07:51:57.168Z,8.20
2022-12-31T07:54:24.734Z,7.97
2022-12-31T07:56:52.698Z,8.23
2022-12-31T07:59:39.059Z,7.90
2022-12-31T08:02:15.899Z,8.13
2022-12-31T08:05:02.812Z,8.24
2022-12-31T08:07:49.788Z,8.20
2022-12-31T08:10:34.280Z,8.17
2022-12-31T08:13:04.282Z,8.42
2022-12-31T08:15:32.426Z,8.75
2022-12-31T08:18:00.295Z,8.86
2022-12-31T08:20:30.028Z,8.67
2022-12-31T08:23:14.494Z,8.27
2022-12-31T08:26:06.951Z,8.68
2022-12-31T08:28:53.342Z,8.72
2022-12-31T08:31:23.298Z,8.55
2022-12-31T08:33:59.344Z,8.64
2022-12-31T08:36:32.653Z,8.55
2022-12-31T08:39:17.359Z,8.65
2022-12-31T08:41:46.687Z,8.77
2022-12-31T08:44:36.760Z,8.76
2022-12-31T08:47:38.913Z,8.78
2022-12-31T08:50:12.644Z,8.86
2022-12-31T08:52:40.471Z,8.98
2022-12-31T08:55:12.471Z,9.15
2022-12-31T08:58:19.087Z,8.80
2022-12-31T09:00:50.313Z,8.93
2022-12-31T09:03:42.773Z,9.39
2022-12-31T09:06:17.084Z,9.08
2022-12-31T09:08:44.747Z,9.10
2022-12-31T09:11:23.132Z,9.22
2022-12-31T09:13:57.403Z,9.53
2022-12-31T09:16:40.932Z,9.40
2022-12-31T09:19:11.692Z,9.59
2022-12-31T09:21:44.428Z,9.40
2022-12-31T09:24:12.751Z,9.33
2022-12-31T09:26:48.963Z,9.61
2022-12-31T09:29:35.378Z,9.62
2022-12-31T09:32:12.088Z,9.76
2022-12-31T09:35:00.202Z,9.63
2022-12-31T09:37:37.859Z,9.47
2022-12-31T09:40:50.610Z,9.80
2022-12-31T09:43:30.812Z,9.83
2022-12-31T09:46:26.559Z,9.98
2022-12-31T09:49:09.705Z,10.08
2022-12-31T09:52:22.275Z,9.88
2022-12-31T09:54:56.400Z,9.92
2022-12-31T09:57:40.379Z,9.79
2022-12-31T10:00:22.714Z,9.97
2022-12-31T10:03:08.675Z,10.07
2022-12-31T10:05:49.749Z,10.05
2022-12-31T10:08:30.044Z,10.21
2022-12-31T10:10:59.718Z,9.94
2022-12-31T10:13:49.122Z,9.89
2022-12-31T10:16:44.156Z,9.94
2022-12-31T10:19:24.466Z,10.28
2022-12-31T10:21:55.061Z,10.30
2022-12-31T10:24:43.090Z,10.37
2022-12-31T10:27:40.025Z,10.78
2022-12-31T10:30:18.728Z,10.84
2022-12-31T10:32:55.417Z,10.81
2022-12-31T10:35:44.967Z,10.81
2022-12-31T10:38:31.125Z,10.58
2022-12-31T10:41:33.335Z,10.43
2022-12-31T10:44:12.979Z,10.77
2022-12-31T10:46:50.033Z,10.93
2022-12-31T10:49:42.876Z,10.67
2022-12-31T10:52:41.513Z,10.71
2022-12-31T10:55:34.400Z,10.55
2022-12-31T10:58:36.146Z,11.01
2022-12-31T11:01:33.939Z,10.84
2022-12-31T11:04:29.836Z,11.02
2022-12-31T11:07:26.862Z,11.11
2022-12-31T11:10:13.099Z,10.40
2022-12-31T11:13:05.716Z,11.02
2022-12-31T11:15:38.621Z,10.86
2022-12-31T11:18:20.016Z,10.76
2022-12-31T11:20:55.981Z,11.06
2022-12-31T11:24:03.238Z,11.06
2022-12-31T11:27:09.059Z,10.64
2022-12-31T11:29:56.134Z,10.82
2022-12-31T11:32:52.553Z,10.97
2022-12-31T11:35:25.269Z,10.91
2022-12-31T11:38:04.778Z,10.98
2022-12-31T11:40:35.253Z,10.89
2022-12-31T11:43:28.145Z,11.09
2022-12-31T11:45:55.721Z,11.49
2022-12-31T11:48:59.640Z,11.46
2022-12-31T11:51:43.091Z,11.44
2022-12-31T11:54:51.219Z,11.56
2022-12-31T11:57:29.842Z,11.22
2022-12-31T12:00:00.884Z,11.34
2022-12-31T12:02:44.805Z,11.39
2022-12-31T12:05:18.059Z,11.69
2022-12-31T12:08:06.827Z,11.66
2022-12-31T12:10:54.001Z,11.85
2022-12-31T12:13:26.714Z,11.70
2022-12-31T12:15:57.973Z,11.74
2022-12-31T12:18:36.213Z,12.23
2022-12-31T12:21:09.993Z,12.29
2022-12-31T12:23:38.244Z,12.05
2022-12-31T12:26:07.149Z,11.84
2022-12-31T12:28:44.700Z,12.21
2022-12-31T12:31:22.095Z,12.41
2022-12-31T12:33:51.518Z,12.04
2022-12-31T12:36:34.101Z,12.02
2022-12-31T12:39:04.555Z,12.39
2022-12-31T12:41:32.512Z,12.23
2022-12-31T12:44:08.659Z,12.48
2022-12-31T12:46:49.575Z,12.44
2022-12-31T12:49:25.041Z,12.16
2022-12-31T12:52:01.876Z,12.20
2022-12-31T12:54:38.507Z,12.61
2022-12-31T12:57:38.661Z,12.15
2022-12-31T13:00:18.780Z,12.19
2022-12-31T13:03:07.815Z,12.44
2022-12-31T13:06:23.721Z,12.30
2022-12-31T13:09:17.497Z,12.42
2022-12-31T13:11:56.028Z,12.85
2022-12-31T13:14:56.553Z,12.43
2022-12-31T13:17:23.871Z,12.15
2022-12-31T13:20:27.558Z,12.22
2022-12-31T13:23:22.223Z,11.95
2022-12-31T13:26:08.868Z,12.10
2022-12-31T13:28:39.063Z,12.26
2022-12-31T13:31:12.637Z,12.18
2022-12-31T13:33:52.747Z,12.65
2022-12-31T13:36:22.017Z,12.84
2022-12-31T13:38:52.014Z,12.45
2022-12-31T13:41:41.448Z,12.18
2022-12-31T13:44:08.792Z,12.29
2022-12-31T13:46:47.309Z,12.59
2022-12-31T13:49:31.583Z,12.60
2022-12-31T13:52:07.403Z,12.54
2022-12-31T13:54:41.170Z,12.50
2022-12-31T13:57:20.610Z,12.40
2022-12-31T13:59:52.026Z,12.51
2022-12-31T14:02:35.699Z,12.77
2022-12-31T14:05:14.197Z,13.00
2022-12-31T14:07:49.287Z,12.71
2022-12-31T14:10:21.602Z,12.42
2022-12-31T14:12:54.148Z,12.55
2022-12-31T14:15:26.471Z,12.36
2022-12-31T14:18:00.039Z,12.61
2022-12-31T14:20:42.216Z,13.03
2022-12-31T14:23:31.593Z,13.05
2022-12-31T14:26:06.363Z,12.90
2022-12-31T14:29:02.846Z,12.61
2022-12-31T14:32:11.896Z,12.56
2022-12-31T14:35:24.085Z,12.66
2022-12-31T14:38:16.671Z,12.59
2022-12-31T14:41:00.735Z,12.50
2022-12-31T14:43:40.845Z,12.37
2022-12-31T14:46:32.008Z,12.05
2022-12-31T14:49:15.232Z,12.17
2022-12-31T14:51:42.980Z,12.47
2022-12-31T14:54:29.130Z,12.31
2022-12-31T14:56:56.805Z,12.20
2022-12-31T14:59:32.206Z,11.92
2022-12-31T15:02:01.968Z,11.62
2022-12-31T15:04:45.412Z,11.66
2022-12-31T15:07:31.476Z,11.76
2022-12-31T15:10:11.637Z,11.71
2022-12-31T15:12:45.179Z,11.74
2022-12-31T15:15:20.461Z,11.56
2022-12-31T15:18:00.698Z,11.23
2022-12-31T15:20:41.187Z,11.46
2022-12-31T15:23:42.411Z,11.44
2022-12-31T15:26:34.792Z,11.55
2022-12-31T15:29:05.632Z,11.60
2022-12-31T15:31:35.289Z,11.67
2022-12-31T15:34:05.737Z,11.90
2022-12-31T15:36:41.347Z,12.17
2022-12-31T15:39:11.950Z,12.18
2022-12-31T15:42:10.416Z,11.82
2022-12-31T15:44:52.059Z,11.60
2022-12-31T15:47:36.777Z,11.56
2022-12-31T15:50:07.248Z,11.52
2022-12-31T15:52:49.187Z,11.47
2022-12-31T15:55:42.596Z,11.48
2022-12-31T15:58:16.863Z,11.66
2022-12-31T16:01:02.239Z,11.83
2022-12-31T16:03:31.303Z,11.56
2022-12-31T16:06:04.695Z,11.39
2022-12-31T16:08:34.731Z,11.66
2022-12-31T16:11:05.431Z,11.71
2022-12-31T16:13:35.383Z,11.74
2022-12-31T16:16:29.740Z,11.48
2022-12-31T16:18:58.301Z,11.39
2022-12-31T16:21:36.926Z,11.31
2022-12-31T16:24:28.977Z,11.30
2022-12-31T16:27:03.515Z,11.38
2022-12-31T16:29:31.456Z,11.35
2022-12-31T16:31:58.971Z,11.38
2022-12-31T16:34:27.641Z,11.43
2022-12-31T16:36:58.013Z,11.49
2022-12-31T16:39:40.708Z,11.26
2022-12-31T16:42:26.353Z,11.27
2022-12-31T16:44:56.038Z,11.19
2022-12-31T16:47:25.221Z,11.15
2022-12-31T16:50:05.709Z,11.14
2022-12-31T16:52:40.423Z,11.06
2022-12-31T16:55:09.955Z,10.99
2022-12-31T16:57:38.182Z,11.12
2022-12-31T17:00:07.462Z,11.17
2022-12-31T17:02:38.816Z,11.12
2022-12-31T17:05:19.312Z,11.15
2022-12-31T17:07:46.745Z,10.96
2022-12-31T17:10:22.280Z,10.82
2022-12-31T17:13:30.899Z,10.71
2022-12-31T17:15:48.817Z,10.80
2022-12-31T17:18:21.560Z,10.73
2022-12-31T17:20:51.600Z,10.65
2022-12-31T17:23:25.147Z,10.67
2022-12-31T17:26:13.358Z,10.73
2022-12-31T17:28:52.142Z,10.54
2022-12-31T17:31:39.163Z,10.48
2022-12-31T17:34:12.520Z,10.41
2022-12-31T17:37:14.428Z,10.29
2022-12-31T17:39:50.356Z,10.48
2022-12-31T17:42:35.831Z,10.71
2022-12-31T17:45:06.951Z,10.54
2022-12-31T17:47:39.675Z,10.55
2022-12-31T17:50:19.400Z,10.54
2022-12-31T17:52:53.055Z,10.47
2022-12-31T17:55:21.108Z,10.33
2022-12-31T17:57:55.063Z,10.44
2022-12-31T18:00:25.689Z,10.52
2022-12-31T18:02:53.793Z,10.70
2022-12-31T18:05:23.500Z,10.66
2022-12-31T18:07:51.763Z,10.68
2022-12-31T18:10:24.187Z,10.66
2022-12-31T18:12:51.817Z,10.51
2022-12-31T18:15:22.578Z,10.41
2022-12-31T18:17:50.175Z,10.39
2022-12-31T18:20:18.081Z,10.19
2022-12-31T18:22:46.021Z,10.11
2022-12-31T18:25:19.709Z,10.58
2022-12-31T18:27:48.460Z,10.49
2022-12-31T18:30:18.916Z,10.37
2022-12-31T18:32:46.927Z,10.24
2022-12-31T18:36:06.542Z,10.22
2022-12-31T18:38:16.866Z,10.11
2022-12-31T18:40:51.155Z,10.09
2022-12-31T18:43:19.713Z,10.00
2022-12-31T18:45:47.909Z,9.82
2022-12-31T18:48:16.030Z,9.85
2022-12-31T18:50:44.442Z,9.94
2022-12-31T18:53:17.997Z,9.85
2022-12-31T18:55:56.974Z,9.90
2022-12-31T18:58:24.623Z,9.90
2022-12-31T19:00:53.292Z,9.57
2022-12-31T19:03:23.578Z,9.64
2022-12-31T19:05:52.073Z,9.63
2022-12-31T19:08:21.012Z,9.46
2022-12-31T19:10:49.957Z,9.55
2022-12-31T19:13:19.584Z,9.29
2022-12-31T19:15:52.581Z,9.48
2022-12-31T19:18:21.119Z,9.98
2022-12-31T19:20:49.079Z,9.68
2022-12-31T19:23:18.973Z,9.49
2022-12-31T19:25:47.450Z,9.49
2022-12-31T19:28:18.353Z,9.38
2022-12-31T19:30:45.943Z,9.23
2022-12-31T19:33:15.438Z,9.32
2022-12-31T19:35:44.136Z,9.58
2022-12-31T19:38:21.835Z,9.53
2022-12-31T19:40:50.190Z,9.41
2022-12-31T19:43:19.712Z,9.12
2022-12-31T19:45:47.745Z,9.22
2022-12-31T19:48:17.634Z,9.09
2022-12-31T19:50:47.418Z,9.25
2022-12-31T19:53:22.218Z,9.36
2022-12-31T19:55:50.884Z,9.26
2022-12-31T19:58:21.061Z,9.16
2022-12-31T20:00:55.615Z,9.27
2022-12-31T20:03:24.859Z,9.15
2022-12-31T20:06:03.229Z,9.06
2022-12-31T20:08:31.035Z,9.12
2022-12-31T20:10:59.080Z,9.20
2022-12-31T20:13:27.200Z,9.26
2022-12-31T20:15:54.916Z,9.39
2022-12-31T20:18:23.306Z,9.31
2022-12-31T20:20:55.746Z,9.27
2022-12-31T20:23:23.660Z,9.33
2022-12-31T20:26:01.235Z,9.24
2022-12-31T20:28:29.786Z,9.17
2022-12-31T20:30:57.521Z,9.17
2022-12-31T20:33:25.023Z,9.17
2022-12-31T20:35:53.235Z,9.14
2022-12-31T20:38:20.636Z,9.13
2022-12-31T20:40:48.067Z,9.38
2022-12-31T20:43:15.919Z,9.30
2022-12-31T20:45:44.799Z,9.22
2022-12-31T20:48:12.446Z,9.15
2022-12-31T20:50:40.246Z,9.05
2022-12-31T20:53:07.631Z,9.08
2022-12-31T20:55:37.800Z,9.35
2022-12-31T20:58:06.405Z,9.05
2022-12-31T21:00:33.800Z,8.81
2022-12-31T21:03:14.320Z,8.67
2022-12-31T21:05:50.782Z,8.57
2022-12-31T21:08:18.806Z,8.54
2022-12-31T21:10:50.226Z,8.63
2022-12-31T21:13:23.130Z,9.24
2022-12-31T21:15:55.214Z,8.77
2022-12-31T21:18:23.300Z,8.78
2022-12-31T21:20:52.623Z,8.58
2022-12-31T21:23:20.863Z,8.47
2022-12-31T21:25:50.035Z,8.51
2022-12-31T21:28:17.692Z,8.72
2022-12-31T21:30:45.436Z,8.50
2022-12-31T21:33:13.399Z,8.46
2022-12-31T21:35:45.806Z,8.54
2022-12-31T21:38:20.035Z,8.55
2022-12-31T21:40:50.452Z,8.43
2022-12-31T21:43:18.358Z,8.58
2022-12-31T21:45:46.432Z,8.50
2022-12-31T21:48:20.702Z,8.49
2022-12-31T21:50:50.506Z,8.35
2022-12-31T21:53:24.168Z,8.41
2022-12-31T21:56:09.591Z,8.40
2022-12-31T21:58:40.866Z,8.41
2022-12-31T22:01:40.083Z,8.41
2022-12-31T22:04:28.235Z,8.37
2022-12-31T22:06:55.745Z,8.38
2022-12-31T22:09:23.532Z,8.35
2022-12-31T22:11:50.998Z,8.31
2022-12-31T22:14:18.431Z,8.40
2022-12-31T22:16:46.259Z,8.23
2022-12-31T22:19:15.871Z,8.32
2022-12-31T22:21:43.372Z,8.31
2022-12-31T22:24:12.311Z,8.17
2022-12-31T22:26:44.788Z,8.29
2022-12-31T22:29:15.104Z,8.24
2022-12-31T22:31:42.794Z,8.09
2022-12-31T22:34:10.691Z,7.90
2022-12-31T22:36:38.688Z,8.27
2022-12-31T22:39:06.361Z,8.05
2022-12-31T22:41:34.173Z,8.06
2022-12-31T22:44:04.843Z,8.06
2022-12-31T22:46:36.339Z,8.10
2022-12-31T22:49:04.785Z,8.10
2022-12-31T22:51:55.963Z,8.10
2022-12-31T22:54:33.049Z,7.91
2022-12-31T22:57:07.594Z,8.00
2022-12-31T22:59:35.302Z,8.12
2022-12-31T23:02:03.070Z,8.17
2022-12-31T23:04:30.513Z,7.90
2022-12-31T23:06:58.275Z,7.81
2022-12-31T23:09:44.734Z,7.73
2022-12-31T23:12:12.594Z,7.72
2022-12-31T23:14:58.898Z,7.68
2022-12-31T23:17:45.924Z,7.74
2022-12-31T23:20:38.285Z,7.76
2022-12-31T23:23:10.485Z,7.49
2022-12-31T23:25:49.181Z,7.73
2022-12-31T23:28:19.563Z,7.60
2022-12-31T23:30:47.036Z,7.71
2022-12-31T23:33:20.276Z,7.61
2022-12-31T23:35:48.333Z,7.60
2022-12-31T23:38:17.514Z,7.50
2022-12-31T23:40:45.276Z,7.42
2022-12-31T23:43:20.114Z,7.41
2022-12-31T23:45:49.468Z,7.56
2022-12-31T23:48:17.277Z,7.36
2022-12-31T23:50:50.787Z,7.42
2022-12-31T23:53:19.070Z,7.46
2022-12-31T23:55:46.701Z,7.45
2022-12-31T23:58:14.325Z,7.49
